Time;durP1;ratioP1;P1;durP2;ratioP2;P2;SDS_P1;SDS_P2;PMS_P1;PMS_P2;Temp;Humidity;BMP_temperature;BMP_pressure;BME280_temperature;BME280_humidity;BME280_pressure;Samples;Min_cycle;Max_cycle;Signal;HPM_P1;HPM_P2
2023/08/16 00:01:32;;;;;;;12.73;11.57;;;;;;;;;;5045345;28;20052;-78
2023/08/16 00:03:57;;;;;;;12.50;11.32;;;;;;;;;;5043387;28;20044;-79
2023/08/16 00:06:23;;;;;;;13.57;12.35;;;;;;;;;;5045197;28;20020;-78
2023/08/16 00:08:49;;;;;;;12.93;11.60;;;;;;;;;;5046535;28;20103;-77
2023/08/16 00:11:14;;;;;;;13.68;12.50;;;;;;;;;;5047091;28;20074;-76
2023/08/16 00:13:39;;;;;;;13.30;12.10;;;;;;;;;;5044315;28;20430;-73
2023/08/16 00:16:05;;;;;;;13.52;12.32;;;;;;;;;;5043476;28;20036;-77
2023/08/16 00:18:31;;;;;;;15.20;13.50;;;;;;;;;;5044531;28;20099;-74
2023/08/16 00:20:58;;;;;;;12.93;11.82;;;;;;;;;;5044313;28;20973;-73
2023/08/16 00:23:23;;;;;;;12.90;11.80;;;;;;;;;;5046750;28;20060;-76
2023/08/16 00:25:49;;;;;;;13.43;12.13;;;;;;;;;;5026313;28;20079;-78
2023/08/16 00:28:14;;;;;;;13.43;12.23;;;;;;;;;;5043861;28;20028;-75
2023/08/16 00:30:40;;;;;;;13.45;12.05;;;;;;;;;;5042613;28;20032;-76
2023/08/16 00:33:06;;;;;;;13.70;12.35;;;;;;;;;;5042767;28;20463;-75
2023/08/16 00:35:31;;;;;;;14.48;13.13;;;;;;;;;;5042691;28;20038;-75
2023/08/16 00:37:58;;;;;;;14.20;12.90;;;;;;;;;;5041513;28;20021;-77
2023/08/16 00:40:23;;;;;;;13.95;12.75;;;;;;;;;;5045727;28;20087;-76
2023/08/16 00:42:49;;;;;;;14.65;13.25;;;;;;;;;;5045407;28;20056;-75
2023/08/16 00:45:15;;;;;;;13.80;12.60;;;;;;;;;;5041984;28;20029;-75
2023/08/16 00:47:41;;;;;;;14.02;12.63;;;;;;;;;;5044989;28;20044;-75
2023/08/16 00:50:07;;;;;;;14.40;13.00;;;;;;;;;;5026446;28;20059;-75
2023/08/16 00:52:33;;;;;;;12.90;11.80;;;;;;;;;;5040442;28;20029;-78
2023/08/16 00:54:58;;;;;;;14.27;13.07;;;;;;;;;;5044972;28;20021;-79
2023/08/16 00:57:24;;;;;;;15.40;13.85;;;;;;;;;;5043788;28;20020;-74
2023/08/16 00:59:49;;;;;;;15.05;13.50;;;;;;;;;;5045694;28;20021;-75
2023/08/16 01:02:15;;;;;;;14.88;13.65;;;;;;;;;;5044182;28;20123;-74
2023/08/16 01:04:43;;;;;;;13.68;12.48;;;;;;;;;;5041355;28;20089;-74
2023/08/16 01:07:09;;;;;;;14.60;13.30;;;;;;;;;;5043682;28;20522;-75
2023/08/16 01:09:35;;;;;;;15.35;12.95;;;;;;;;;;5044718;28;21096;-75
2023/08/16 01:12:06;;;;;;;14.13;12.73;;;;;;;;;;5042498;28;20400;-74
2023/08/16 01:14:52;;;;;;;15.07;13.70;;;;;;;;;;5041587;28;20044;-76
2023/08/16 01:17:20;;;;;;;14.63;13.27;;;;;;;;;;5033557;28;20443;-74
2023/08/16 01:19:45;;;;;;;14.50;13.00;;;;;;;;;;5044154;28;20066;-74
2023/08/16 01:22:16;;;;;;;14.63;13.40;;;;;;;;;;5053143;28;20363;-76
2023/08/16 01:24:50;;;;;;;14.68;13.27;;;;;;;;;;5056143;28;20359;-73
2023/08/16 01:27:18;;;;;;;14.32;13.13;;;;;;;;;;5055636;28;20083;-74
2023/08/16 01:29:45;;;;;;;15.32;13.93;;;;;;;;;;5057003;28;20020;-76
2023/08/16 01:32:10;;;;;;;15.20;13.88;;;;;;;;;;5056436;28;20111;-74
2023/08/16 01:34:35;;;;;;;14.75;13.55;;;;;;;;;;5048465;28;20554;-73
2023/08/16 01:37:01;;;;;;;15.25;13.60;;;;;;;;;;5052554;28;20024;-73
2023/08/16 01:39:26;;;;;;;14.23;13.00;;;;;;;;;;5048826;28;20029;-74
2023/08/16 01:41:54;;;;;;;14.85;13.65;;;;;;;;;;5051645;28;20040;-73
2023/08/16 01:44:20;;;;;;;15.88;14.55;;;;;;;;;;5055331;28;20048;-74
2023/08/16 01:46:46;;;;;;;14.55;13.13;;;;;;;;;;5054359;28;20021;-77
2023/08/16 01:49:13;;;;;;;14.98;13.68;;;;;;;;;;5049037;28;20451;-74
2023/08/16 01:51:38;;;;;;;14.40;13.05;;;;;;;;;;5049277;28;20017;-75
2023/08/16 01:54:04;;;;;;;14.35;13.07;;;;;;;;;;5051197;28;20058;-77
2023/08/16 01:56:29;;;;;;;12.90;11.80;;;;;;;;;;5050523;28;20086;-74
2023/08/16 01:58:55;;;;;;;15.98;13.05;;;;;;;;;;5045715;28;20028;-82
2023/08/16 02:01:21;;;;;;;15.20;14.00;;;;;;;;;;5048086;28;20074;-75
2023/08/16 02:03:46;;;;;;;13.77;12.60;;;;;;;;;;5049347;28;20029;-77
2023/08/16 02:06:11;;;;;;;14.50;13.25;;;;;;;;;;5054419;28;20032;-76
2023/08/16 02:08:37;;;;;;;14.80;13.50;;;;;;;;;;5056349;28;20436;-75
2023/08/16 02:11:02;;;;;;;15.63;14.27;;;;;;;;;;5049293;28;20024;-74
2023/08/16 02:13:28;;;;;;;15.23;13.93;;;;;;;;;;5043321;28;20368;-77
2023/08/16 02:16:03;;;;;;;15.85;14.48;;;;;;;;;;5045527;28;20039;-74
2023/08/16 02:18:29;;;;;;;15.30;13.85;;;;;;;;;;5055264;28;20036;-74
2023/08/16 02:20:54;;;;;;;15.95;14.48;;;;;;;;;;5056999;28;20051;-75
2023/08/16 02:23:19;;;;;;;15.02;13.82;;;;;;;;;;5046181;28;20017;-73
2023/08/16 02:25:45;;;;;;;15.35;13.93;;;;;;;;;;5042855;28;20276;-75
2023/08/16 02:28:10;;;;;;;14.93;13.73;;;;;;;;;;5054156;28;20099;-74
2023/08/16 02:30:35;;;;;;;16.77;15.18;;;;;;;;;;5056557;28;20035;-76
2023/08/16 02:33:01;;;;;;;15.27;13.88;;;;;;;;;;5053041;28;20051;-73
2023/08/16 02:35:26;;;;;;;17.02;15.43;;;;;;;;;;5046889;28;20051;-74
2023/08/16 02:37:51;;;;;;;14.80;13.43;;;;;;;;;;5055809;28;20428;-73
2023/08/16 02:40:17;;;;;;;14.55;13.30;;;;;;;;;;5056668;28;20025;-74
2023/08/16 02:42:42;;;;;;;15.77;14.32;;;;;;;;;;5051109;28;20124;-75
2023/08/16 02:45:08;;;;;;;17.42;15.55;;;;;;;;;;5035505;28;20112;-74
2023/08/16 02:47:33;;;;;;;15.73;14.18;;;;;;;;;;5023277;28;20020;-74
2023/08/16 02:49:58;;;;;;;15.27;13.90;;;;;;;;;;5026475;28;20021;-74
2023/08/16 02:52:24;;;;;;;15.95;14.65;;;;;;;;;;5025285;28;20332;-77
2023/08/16 02:54:49;;;;;;;16.70;13.70;;;;;;;;;;5029596;28;20037;-75
2023/08/16 02:57:16;;;;;;;15.85;14.32;;;;;;;;;;5023449;28;20037;-73
2023/08/16 02:59:43;;;;;;;14.63;13.40;;;;;;;;;;5028096;28;20036;-75
2023/08/16 03:02:08;;;;;;;14.90;13.60;;;;;;;;;;5033309;28;20060;-73
2023/08/16 03:04:38;;;;;;;15.60;14.23;;;;;;;;;;5035439;28;20083;-77
2023/08/16 03:07:04;;;;;;;15.70;14.30;;;;;;;;;;5034441;28;20108;-73
2023/08/16 03:09:29;;;;;;;15.18;13.77;;;;;;;;;;5005080;28;20464;-78
2023/08/16 03:11:55;;;;;;;16.63;15.23;;;;;;;;;;5029137;28;20025;-76
2023/08/16 03:14:20;;;;;;;16.20;14.73;;;;;;;;;;5029236;28;20026;-75
2023/08/16 03:16:46;;;;;;;15.18;13.70;;;;;;;;;;5032526;28;20456;-73
2023/08/16 03:19:11;;;;;;;15.07;13.77;;;;;;;;;;5030580;28;20040;-74
2023/08/16 03:21:37;;;;;;;15.63;14.23;;;;;;;;;;5028203;28;20451;-75
2023/08/16 03:24:02;;;;;;;14.50;13.25;;;;;;;;;;5031947;28;20351;-74
2023/08/16 03:26:28;;;;;;;15.43;13.95;;;;;;;;;;5032695;28;20021;-74
2023/08/16 03:28:53;;;;;;;15.05;13.75;;;;;;;;;;5034380;28;20165;-73
2023/08/16 03:31:19;;;;;;;14.57;13.35;;;;;;;;;;5030492;28;20915;-76
2023/08/16 03:33:44;;;;;;;15.65;13.85;;;;;;;;;;5039071;28;20029;-75
2023/08/16 03:36:09;;;;;;;15.02;13.73;;;;;;;;;;5038548;28;20025;-73
2023/08/16 03:38:35;;;;;;;16.98;15.38;;;;;;;;;;5039914;28;20506;-73
2023/08/16 03:41:00;;;;;;;16.17;14.77;;;;;;;;;;5036484;28;20029;-73
2023/08/16 03:43:26;;;;;;;15.55;14.18;;;;;;;;;;5034472;28;20122;-73
2023/08/16 03:45:51;;;;;;;14.10;12.90;;;;;;;;;;5025692;28;20961;-74
2023/08/16 03:48:17;;;;;;;16.05;14.35;;;;;;;;;;5022476;28;20024;-75
2023/08/16 03:50:42;;;;;;;15.43;13.90;;;;;;;;;;5023490;28;20452;-74
2023/08/16 03:53:08;;;;;;;15.30;14.07;;;;;;;;;;5034363;28;20403;-74
2023/08/16 03:55:33;;;;;;;14.88;13.50;;;;;;;;;;5019849;28;20119;-75
2023/08/16 03:57:58;;;;;;;15.30;14.00;;;;;;;;;;5004713;28;20024;-75
2023/08/16 04:00:24;;;;;;;15.75;14.25;;;;;;;;;;5024211;28;20040;-78
2023/08/16 04:02:49;;;;;;;15.35;14.05;;;;;;;;;;5022133;28;20033;-73
2023/08/16 04:05:15;;;;;;;14.48;13.18;;;;;;;;;;5021403;28;20793;-73
2023/08/16 04:07:40;;;;;;;14.82;13.43;;;;;;;;;;5034404;28;20466;-73
2023/08/16 04:10:06;;;;;;;16.98;15.20;;;;;;;;;;5038412;28;20048;-72
2023/08/16 04:12:31;;;;;;;15.65;14.10;;;;;;;;;;5040480;28;20044;-74
2023/08/16 04:14:57;;;;;;;15.85;14.35;;;;;;;;;;5023909;28;20033;-76
2023/08/16 04:17:22;;;;;;;14.07;12.98;;;;;;;;;;5024806;28;20056;-74
2023/08/16 04:19:47;;;;;;;15.82;14.25;;;;;;;;;;5026359;28;20029;-71
2023/08/16 04:22:13;;;;;;;14.80;13.40;;;;;;;;;;5022520;28;20021;-74
2023/08/16 04:24:38;;;;;;;15.77;14.45;;;;;;;;;;5033393;28;20025;-73
2023/08/16 04:27:04;;;;;;;14.70;13.50;;;;;;;;;;5020174;28;20093;-72
2023/08/16 04:29:30;;;;;;;13.95;12.65;;;;;;;;;;5030468;28;20060;-72
2023/08/16 04:31:56;;;;;;;15.18;13.60;;;;;;;;;;5024345;28;20126;-74
2023/08/16 04:34:21;;;;;;;14.25;12.95;;;;;;;;;;5027125;28;20507;-77
2023/08/16 04:36:47;;;;;;;14.32;12.93;;;;;;;;;;5025337;28;20104;-77
2023/08/16 04:39:12;;;;;;;13.75;12.60;;;;;;;;;;5037542;28;20443;-78
2023/08/16 04:41:37;;;;;;;14.07;12.85;;;;;;;;;;5027450;28;20033;-76
2023/08/16 04:44:03;;;;;;;14.60;13.18;;;;;;;;;;5028954;28;20064;-77
2023/08/16 04:46:29;;;;;;;14.77;13.38;;;;;;;;;;5025018;28;20033;-78
2023/08/16 04:48:54;;;;;;;14.35;12.93;;;;;;;;;;5025042;28;20021;-77
2023/08/16 04:51:20;;;;;;;15.30;14.07;;;;;;;;;;5024085;28;20116;-75
2023/08/16 04:53:46;;;;;;;16.05;14.45;;;;;;;;;;5032424;28;20033;-75
2023/08/16 04:56:12;;;;;;;16.02;14.52;;;;;;;;;;5032029;28;20059;-80
2023/08/16 04:58:37;;;;;;;15.90;14.50;;;;;;;;;;5028644;28;20033;-81
2023/08/16 05:01:02;;;;;;;16.35;14.73;;;;;;;;;;5038197;28;20142;-77
2023/08/16 05:03:29;;;;;;;16.85;15.23;;;;;;;;;;5036410;28;20029;-78
2023/08/16 05:06:00;;;;;;;16.67;15.00;;;;;;;;;;5031826;28;20115;-75
2023/08/16 05:08:25;;;;;;;15.50;14.10;;;;;;;;;;5037247;28;20061;-80
2023/08/16 05:10:50;;;;;;;16.10;14.73;;;;;;;;;;5020263;28;20539;-79
2023/08/16 05:13:17;;;;;;;16.85;14.60;;;;;;;;;;5023235;28;20034;-80
2023/08/16 05:15:42;;;;;;;15.45;13.98;;;;;;;;;;5039019;28;20436;-78
2023/08/16 05:18:08;;;;;;;14.30;13.05;;;;;;;;;;5035967;28;20040;-79
2023/08/16 05:20:34;;;;;;;16.88;15.48;;;;;;;;;;5038413;28;20036;-79
2023/08/16 05:23:00;;;;;;;15.48;13.98;;;;;;;;;;5036419;28;20428;-77
2023/08/16 05:25:25;;;;;;;14.48;13.18;;;;;;;;;;5036346;28;20087;-76
2023/08/16 05:27:50;;;;;;;15.00;13.63;;;;;;;;;;5025691;28;20500;-76
2023/08/16 05:30:16;;;;;;;16.20;14.60;;;;;;;;;;5023764;28;20033;-72
2023/08/16 05:32:41;;;;;;;15.32;14.02;;;;;;;;;;5023040;28;20025;-77
2023/08/16 05:35:06;;;;;;;14.85;13.45;;;;;;;;;;5024845;28;20029;-72
2023/08/16 05:37:32;;;;;;;14.57;13.05;;;;;;;;;;5030554;28;20028;-79
2023/08/16 05:39:57;;;;;;;15.20;13.80;;;;;;;;;;5035794;28;20112;-76
2023/08/16 05:42:22;;;;;;;15.48;14.07;;;;;;;;;;5036509;28;20467;-73
2023/08/16 05:44:48;;;;;;;15.20;13.90;;;;;;;;;;5036308;28;20116;-74
2023/08/16 05:47:13;;;;;;;14.68;13.30;;;;;;;;;;5038649;28;20487;-72
2023/08/16 05:49:38;;;;;;;14.25;13.05;;;;;;;;;;5038326;28;20036;-72
2023/08/16 05:52:04;;;;;;;13.77;12.45;;;;;;;;;;5036835;28;20033;-74
2023/08/16 05:54:29;;;;;;;13.23;12.15;;;;;;;;;;5037967;28;20044;-76
2023/08/16 05:56:54;;;;;;;14.35;13.10;;;;;;;;;;5036329;28;20121;-78
2023/08/16 05:59:20;;;;;;;13.77;12.50;;;;;;;;;;5027929;28;20099;-80
2023/08/16 06:01:45;;;;;;;15.38;13.88;;;;;;;;;;5036876;28;20076;-81
2023/08/16 06:04:10;;;;;;;13.77;12.40;;;;;;;;;;5036529;28;20078;-76
2023/08/16 06:06:36;;;;;;;13.40;12.20;;;;;;;;;;5035179;28;20099;-80
2023/08/16 06:09:01;;;;;;;13.48;12.25;;;;;;;;;;5036801;28;20447;-78
2023/08/16 06:11:27;;;;;;;13.90;11.70;;;;;;;;;;5035186;28;20122;-77
2023/08/16 06:13:52;;;;;;;13.88;12.27;;;;;;;;;;5036972;28;20400;-76
2023/08/16 06:16:17;;;;;;;14.05;12.70;;;;;;;;;;5036470;28;20025;-78
2023/08/16 06:18:43;;;;;;;14.30;13.00;;;;;;;;;;5037651;28;20041;-78
2023/08/16 06:21:08;;;;;;;14.07;11.98;;;;;;;;;;5037076;28;20025;-83
2023/08/16 06:23:34;;;;;;;13.02;11.95;;;;;;;;;;5034406;28;20072;-77
2023/08/16 06:26:00;;;;;;;13.52;12.23;;;;;;;;;;5036646;28;20024;-79
2023/08/16 06:28:25;;;;;;;13.02;11.70;;;;;;;;;;5035172;28;20031;-78
2023/08/16 06:30:51;;;;;;;12.65;11.55;;;;;;;;;;5036742;28;20064;-78
2023/08/16 06:33:17;;;;;;;14.32;11.70;;;;;;;;;;5035836;28;20079;-80
2023/08/16 06:35:42;;;;;;;13.98;11.68;;;;;;;;;;5036621;28;20049;-78
2023/08/16 06:38:08;;;;;;;13.10;11.90;;;;;;;;;;5035727;28;20171;-80
2023/08/16 06:40:33;;;;;;;12.57;11.43;;;;;;;;;;5036303;28;20108;-81
2023/08/16 06:42:58;;;;;;;15.43;12.60;;;;;;;;;;5035574;28;20448;-78
2023/08/16 06:45:24;;;;;;;14.02;12.82;;;;;;;;;;5037118;28;20111;-85
2023/08/16 06:47:49;;;;;;;12.98;11.68;;;;;;;;;;5035058;28;20056;-80
2023/08/16 06:50:15;;;;;;;13.00;11.80;;;;;;;;;;5040130;28;20104;-80
2023/08/16 06:52:42;;;;;;;15.05;12.32;;;;;;;;;;5041243;28;20076;-78
2023/08/16 06:55:07;;;;;;;13.50;11.15;;;;;;;;;;5039750;28;20095;-80
2023/08/16 06:57:33;;;;;;;12.45;11.30;;;;;;;;;;5040684;28;20029;-83
2023/08/16 06:59:58;;;;;;;12.13;10.50;;;;;;;;;;5038032;28;20060;-80
2023/08/16 07:02:24;;;;;;;11.90;10.63;;;;;;;;;;5039114;28;20040;-80
2023/08/16 07:04:50;;;;;;;11.48;10.55;;;;;;;;;;5028248;28;20037;-78
2023/08/16 07:07:15;;;;;;;11.25;10.30;;;;;;;;;;5039494;28;20029;-77
2023/08/16 07:09:41;;;;;;;11.07;10.07;;;;;;;;;;5039994;28;20026;-77
2023/08/16 07:12:06;;;;;;;11.95;10.52;;;;;;;;;;5041009;28;20025;-78
2023/08/16 07:14:32;;;;;;;11.45;10.05;;;;;;;;;;5040358;28;20029;-80
2023/08/16 07:16:57;;;;;;;12.43;11.30;;;;;;;;;;5041479;28;21308;-79
2023/08/16 07:19:23;;;;;;;11.90;10.88;;;;;;;;;;5038573;28;20017;-77
2023/08/16 07:21:48;;;;;;;11.63;10.60;;;;;;;;;;5026260;28;20034;-80
2023/08/16 07:24:13;;;;;;;11.30;10.20;;;;;;;;;;5035596;28;20061;-77
2023/08/16 07:26:39;;;;;;;12.13;10.10;;;;;;;;;;5039889;28;20025;-77
2023/08/16 07:29:04;;;;;;;12.77;11.52;;;;;;;;;;5038406;28;20044;-77
2023/08/16 07:31:29;;;;;;;12.00;10.80;;;;;;;;;;5037944;28;20031;-76
2023/08/16 07:33:55;;;;;;;11.25;10.15;;;;;;;;;;5035684;28;20109;-76
2023/08/16 07:36:20;;;;;;;12.02;10.82;;;;;;;;;;5038313;28;20064;-76
2023/08/16 07:38:47;;;;;;;12.27;11.13;;;;;;;;;;5036856;28;20044;-77
2023/08/16 07:41:12;;;;;;;11.82;10.82;;;;;;;;;;5035884;28;20033;-76
2023/08/16 07:43:38;;;;;;;11.65;10.65;;;;;;;;;;5024152;28;20067;-76
2023/08/16 07:46:03;;;;;;;11.77;10.73;;;;;;;;;;5037544;28;20044;-75
2023/08/16 07:48:29;;;;;;;13.02;10.15;;;;;;;;;;5040563;28;20100;-77
2023/08/16 07:50:54;;;;;;;11.35;10.18;;;;;;;;;;5038149;28;20055;-78
2023/08/16 07:53:22;;;;;;;12.35;10.60;;;;;;;;;;5040450;28;20029;-76
2023/08/16 07:55:47;;;;;;;14.15;11.45;;;;;;;;;;5031818;28;21022;-75
2023/08/16 07:58:15;;;;;;;12.95;10.23;;;;;;;;;;5020707;28;20064;-76
2023/08/16 08:00:42;;;;;;;11.50;10.32;;;;;;;;;;5031574;28;20437;-74
2023/08/16 08:03:09;;;;;;;16.08;10.85;;;;;;;;;;5040032;28;20356;-75
2023/08/16 08:05:35;;;;;;;14.98;11.15;;;;;;;;;;5038795;28;20451;-73
2023/08/16 08:08:00;;;;;;;17.40;10.55;;;;;;;;;;5038718;28;20028;-74
2023/08/16 08:10:26;;;;;;;13.00;10.18;;;;;;;;;;5035539;28;20036;-73
2023/08/16 08:12:51;;;;;;;11.57;9.90;;;;;;;;;;5039764;28;20025;-74
2023/08/16 08:15:17;;;;;;;10.82;9.82;;;;;;;;;;5034845;28;20419;-77
2023/08/16 08:17:43;;;;;;;11.45;9.23;;;;;;;;;;5037225;28;20022;-77
2023/08/16 08:20:08;;;;;;;11.25;9.40;;;;;;;;;;5037052;28;20308;-73
2023/08/16 08:22:34;;;;;;;10.07;9.18;;;;;;;;;;5037948;28;20025;-75
2023/08/16 08:25:00;;;;;;;10.10;9.10;;;;;;;;;;5039855;28;20470;-76
2023/08/16 08:27:25;;;;;;;10.10;9.10;;;;;;;;;;5036588;28;20024;-75
2023/08/16 08:29:51;;;;;;;10.65;9.25;;;;;;;;;;5037406;28;20025;-73
2023/08/16 08:32:17;;;;;;;9.95;9.05;;;;;;;;;;5036893;28;20025;-76
2023/08/16 08:34:43;;;;;;;10.15;9.20;;;;;;;;;;5032169;28;20037;-79
2023/08/16 08:37:08;;;;;;;9.50;8.60;;;;;;;;;;5034527;28;20032;-72
2023/08/16 08:39:33;;;;;;;10.63;8.20;;;;;;;;;;5035855;28;20406;-75
2023/08/16 08:41:59;;;;;;;10.70;8.88;;;;;;;;;;5039213;28;20068;-75
2023/08/16 08:44:25;;;;;;;9.32;8.38;;;;;;;;;;5047204;28;20051;-77
2023/08/16 08:46:50;;;;;;;8.68;7.88;;;;;;;;;;5044358;28;20025;-76
2023/08/16 08:49:15;;;;;;;12.30;8.50;;;;;;;;;;5053687;28;20020;-76
2023/08/16 08:51:41;;;;;;;13.52;8.23;;;;;;;;;;5047899;28;20048;-75
2023/08/16 08:54:07;;;;;;;10.63;8.63;;;;;;;;;;5044858;28;20039;-79
2023/08/16 08:56:32;;;;;;;10.55;8.35;;;;;;;;;;5043089;28;20028;-75
2023/08/16 08:59:00;;;;;;;11.73;8.52;;;;;;;;;;5041562;28;20064;-80
2023/08/16 09:01:25;;;;;;;10.98;8.48;;;;;;;;;;5043021;28;20332;-75
2023/08/16 09:03:52;;;;;;;11.05;8.98;;;;;;;;;;5027272;28;20039;-77
2023/08/16 09:06:17;;;;;;;9.27;8.45;;;;;;;;;;5048945;28;20028;-77
2023/08/16 09:08:45;;;;;;;9.50;8.10;;;;;;;;;;5055765;28;20039;-75
2023/08/16 09:11:11;;;;;;;12.07;8.25;;;;;;;;;;5054569;28;20439;-77
2023/08/16 09:13:36;;;;;;;17.33;8.25;;;;;;;;;;5052344;28;20037;-77
2023/08/16 09:16:02;;;;;;;9.73;8.73;;;;;;;;;;5054999;28;20032;-78
2023/08/16 09:18:27;;;;;;;9.43;8.38;;;;;;;;;;5056056;28;20032;-75
2023/08/16 09:20:53;;;;;;;11.93;8.88;;;;;;;;;;5047850;28;20035;-77
2023/08/16 09:23:19;;;;;;;12.38;8.10;;;;;;;;;;5042462;28;20082;-76
2023/08/16 09:25:44;;;;;;;9.70;7.78;;;;;;;;;;5041884;28;20459;-74
2023/08/16 09:28:16;;;;;;;12.43;8.13;;;;;;;;;;5039437;28;20017;-76
2023/08/16 09:30:42;;;;;;;9.15;7.40;;;;;;;;;;5040810;28;20094;-78
2023/08/16 09:33:08;;;;;;;8.63;7.53;;;;;;;;;;5041662;28;20049;-75
2023/08/16 09:35:34;;;;;;;9.60;8.57;;;;;;;;;;5041582;28;20037;-75
2023/08/16 09:37:59;;;;;;;10.00;8.88;;;;;;;;;;5042513;28;20444;-74
2023/08/16 09:40:25;;;;;;;10.85;8.60;;;;;;;;;;5042661;28;20143;-76
2023/08/16 09:42:51;;;;;;;12.00;8.30;;;;;;;;;;5040502;28;20031;-77
2023/08/16 09:45:25;;;;;;;8.52;7.68;;;;;;;;;;5025293;28;20043;-76
2023/08/16 09:47:50;;;;;;;9.57;8.13;;;;;;;;;;5021203;28;20017;-77
2023/08/16 09:50:21;;;;;;;8.07;7.35;;;;;;;;;;5031570;28;20079;-76
2023/08/16 09:52:47;;;;;;;8.30;7.50;;;;;;;;;;5033346;28;20347;-75
2023/08/16 09:55:21;;;;;;;11.07;8.00;;;;;;;;;;5032225;28;20027;-73
2023/08/16 09:57:46;;;;;;;8.93;8.02;;;;;;;;;;5034580;28;20344;-73
2023/08/16 10:00:12;;;;;;;9.23;7.38;;;;;;;;;;5031650;28;20032;-79
2023/08/16 10:02:38;;;;;;;8.93;7.30;;;;;;;;;;5033582;28;20033;-79
2023/08/16 10:05:03;;;;;;;9.38;7.45;;;;;;;;;;5033246;28;20043;-77
2023/08/16 10:07:29;;;;;;;9.32;7.28;;;;;;;;;;5032640;28;20056;-76
2023/08/16 10:09:55;;;;;;;9.45;7.30;;;;;;;;;;5033359;28;20037;-76
2023/08/16 10:12:20;;;;;;;8.40;6.80;;;;;;;;;;5030769;28;20034;-75
2023/08/16 10:14:46;;;;;;;9.93;7.03;;;;;;;;;;5032720;28;20041;-76
2023/08/16 10:17:12;;;;;;;9.82;6.93;;;;;;;;;;5031899;28;20033;-74
2023/08/16 10:19:39;;;;;;;8.52;6.97;;;;;;;;;;5014416;28;20417;-74
2023/08/16 10:22:12;;;;;;;11.48;7.72;;;;;;;;;;5020834;28;20095;-76
2023/08/16 10:24:38;;;;;;;10.40;7.43;;;;;;;;;;5016230;28;20356;-75
2023/08/16 10:27:04;;;;;;;9.27;6.90;;;;;;;;;;5016368;28;20024;-76
2023/08/16 10:29:35;;;;;;;7.53;6.82;;;;;;;;;;5018412;28;20044;-77
2023/08/16 10:32:02;;;;;;;8.38;7.00;;;;;;;;;;5019751;28;20028;-76
2023/08/16 10:34:28;;;;;;;9.15;6.90;;;;;;;;;;5032385;28;20037;-76
2023/08/16 10:36:53;;;;;;;8.30;7.25;;;;;;;;;;5033823;28;20570;-75
2023/08/16 10:39:22;;;;;;;10.10;6.60;;;;;;;;;;5015468;28;20502;-75
2023/08/16 10:41:50;;;;;;;10.60;8.05;;;;;;;;;;5019894;28;20339;-77
2023/08/16 10:44:23;;;;;;;7.95;7.05;;;;;;;;;;5032588;28;20052;-74
2023/08/16 10:46:50;;;;;;;8.18;7.43;;;;;;;;;;5054388;28;20416;-75
2023/08/16 10:49:16;;;;;;;8.25;6.82;;;;;;;;;;5053226;28;20041;-76
2023/08/16 10:51:42;;;;;;;7.25;6.65;;;;;;;;;;5049878;28;20025;-75
2023/08/16 10:54:07;;;;;;;8.95;6.90;;;;;;;;;;5050072;28;20029;-74
2023/08/16 10:56:38;;;;;;;11.30;8.00;;;;;;;;;;5053945;28;20032;-76
2023/08/16 10:59:05;;;;;;;8.60;7.05;;;;;;;;;;5049839;28;21558;-75
2023/08/16 11:01:34;;;;;;;7.10;6.40;;;;;;;;;;5050553;28;20032;-76
2023/08/16 11:04:00;;;;;;;9.57;6.88;;;;;;;;;;5050919;28;20037;-75
2023/08/16 11:06:25;;;;;;;7.72;6.78;;;;;;;;;;5052269;28;20031;-74
2023/08/16 11:08:51;;;;;;;9.00;7.22;;;;;;;;;;5051915;28;20448;-76
2023/08/16 11:11:16;;;;;;;7.18;6.47;;;;;;;;;;5049792;28;20107;-74
2023/08/16 11:13:42;;;;;;;8.25;7.13;;;;;;;;;;5033231;28;20040;-76
2023/08/16 11:16:11;;;;;;;8.15;6.90;;;;;;;;;;5052237;28;20122;-74
2023/08/16 11:18:37;;;;;;;8.70;6.82;;;;;;;;;;5042024;28;20435;-78
2023/08/16 11:21:03;;;;;;;9.13;6.85;;;;;;;;;;5060007;28;20782;-76
2023/08/16 11:23:32;;;;;;;7.88;7.10;;;;;;;;;;5060497;28;20049;-75
2023/08/16 11:26:01;;;;;;;8.57;6.80;;;;;;;;;;5059678;28;20048;-75
2023/08/16 11:28:30;;;;;;;7.43;6.55;;;;;;;;;;5059350;28;20028;-76
2023/08/16 11:30:59;;;;;;;8.00;6.47;;;;;;;;;;5039194;28;20030;-74
2023/08/16 11:33:34;;;;;;;7.85;7.05;;;;;;;;;;5069757;28;20123;-78
2023/08/16 11:36:00;;;;;;;9.20;7.32;;;;;;;;;;5059732;28;20032;-79
2023/08/16 11:38:27;;;;;;;8.68;6.90;;;;;;;;;;5063913;28;20028;-79
2023/08/16 11:40:52;;;;;;;8.65;6.57;;;;;;;;;;5062050;28;20021;-77
2023/08/16 11:43:19;;;;;;;7.82;6.43;;;;;;;;;;5064681;28;20051;-75
2023/08/16 11:45:50;;;;;;;7.70;6.53;;;;;;;;;;5064465;28;20103;-74
2023/08/16 11:48:16;;;;;;;8.55;6.28;;;;;;;;;;5043234;28;20027;-74
2023/08/16 11:50:42;;;;;;;6.97;6.32;;;;;;;;;;5064895;28;20482;-74
2023/08/16 11:53:08;;;;;;;6.85;6.10;;;;;;;;;;5071308;28;20039;-76
2023/08/16 11:55:33;;;;;;;6.97;6.38;;;;;;;;;;5064069;28;20032;-75
2023/08/16 11:58:03;;;;;;;8.65;7.05;;;;;;;;;;5041362;28;20534;-77
2023/08/16 12:00:29;;;;;;;9.50;6.57;;;;;;;;;;5062829;28;20036;-79
2023/08/16 12:02:57;;;;;;;10.07;6.68;;;;;;;;;;5071334;28;20343;-75
2023/08/16 12:05:23;;;;;;;7.03;6.03;;;;;;;;;;5076020;28;20410;-76
2023/08/16 12:07:51;;;;;;;9.95;6.63;;;;;;;;;;5075490;28;20077;-75
2023/08/16 12:10:27;;;;;;;9.82;6.90;;;;;;;;;;5072736;28;20470;-76
2023/08/16 12:12:53;;;;;;;7.18;6.57;;;;;;;;;;5061844;28;20048;-75
2023/08/16 12:15:20;;;;;;;7.57;6.72;;;;;;;;;;5062559;28;20036;-77
2023/08/16 12:17:46;;;;;;;11.57;7.65;;;;;;;;;;5062544;28;20343;-76
2023/08/16 12:20:12;;;;;;;7.07;6.47;;;;;;;;;;5063296;28;20028;-76
2023/08/16 12:22:37;;;;;;;7.65;6.22;;;;;;;;;;5062870;28;20020;-75
2023/08/16 12:25:03;;;;;;;8.90;6.72;;;;;;;;;;5064063;28;20347;-75
2023/08/16 12:27:28;;;;;;;7.63;6.93;;;;;;;;;;5063599;28;20035;-75
2023/08/16 12:29:54;;;;;;;7.30;6.60;;;;;;;;;;5063482;28;20343;-77
2023/08/16 12:32:19;;;;;;;7.57;6.63;;;;;;;;;;5063509;28;20038;-75
2023/08/16 12:34:44;;;;;;;7.47;6.28;;;;;;;;;;5061522;28;20032;-75
2023/08/16 12:37:10;;;;;;;7.93;6.63;;;;;;;;;;5061930;28;20044;-75
2023/08/16 12:39:36;;;;;;;7.75;6.97;;;;;;;;;;5064197;28;20032;-76
2023/08/16 12:42:04;;;;;;;6.57;6.07;;;;;;;;;;5062975;28;20028;-77
2023/08/16 12:44:29;;;;;;;7.35;6.03;;;;;;;;;;5047064;28;20048;-76
2023/08/16 12:46:54;;;;;;;8.25;6.70;;;;;;;;;;5043937;28;20082;-74
2023/08/16 12:49:20;;;;;;;7.45;6.57;;;;;;;;;;5040748;28;20103;-73
2023/08/16 12:51:45;;;;;;;9.88;6.65;;;;;;;;;;5042366;28;20041;-75
2023/08/16 12:54:10;;;;;;;9.65;5.85;;;;;;;;;;5030983;28;20040;-74
2023/08/16 12:56:36;;;;;;;9.77;6.97;;;;;;;;;;5040186;28;20107;-75
2023/08/16 12:59:01;;;;;;;7.22;6.53;;;;;;;;;;5043551;28;20427;-74
2023/08/16 13:01:27;;;;;;;14.32;6.22;;;;;;;;;;5043284;28;20032;-76
2023/08/16 13:03:52;;;;;;;7.10;6.32;;;;;;;;;;5040753;28;20036;-76
2023/08/16 13:06:17;;;;;;;8.52;6.28;;;;;;;;;;5043089;28;20031;-80
2023/08/16 13:08:43;;;;;;;7.32;6.10;;;;;;;;;;5038005;28;20027;-76
2023/08/16 13:11:08;;;;;;;6.55;5.97;;;;;;;;;;5041284;28;20446;-74
2023/08/16 13:13:34;;;;;;;7.72;6.78;;;;;;;;;;5041689;28;20044;-75
2023/08/16 13:15:59;;;;;;;8.20;7.35;;;;;;;;;;5040979;28;20039;-75
2023/08/16 13:18:24;;;;;;;8.55;5.68;;;;;;;;;;5039422;28;20131;-75
2023/08/16 13:20:50;;;;;;;6.65;5.95;;;;;;;;;;5052848;28;20351;-76
2023/08/16 13:23:16;;;;;;;5.97;5.38;;;;;;;;;;5051358;28;20029;-76
2023/08/16 13:25:42;;;;;;;6.50;5.90;;;;;;;;;;5055672;28;20036;-76
2023/08/16 13:28:08;;;;;;;7.20;5.57;;;;;;;;;;5041251;28;20025;-74
2023/08/16 13:30:37;;;;;;;9.32;5.55;;;;;;;;;;5052123;28;20033;-75
2023/08/16 13:33:03;;;;;;;5.65;5.13;;;;;;;;;;5039159;28;20020;-77
2023/08/16 13:35:28;;;;;;;9.13;5.72;;;;;;;;;;5045959;28;20035;-76
2023/08/16 13:37:54;;;;;;;9.13;6.03;;;;;;;;;;5042354;28;20085;-74
2023/08/16 13:40:19;;;;;;;10.02;5.45;;;;;;;;;;5055074;28;20433;-74
2023/08/16 13:42:45;;;;;;;6.93;5.97;;;;;;;;;;5048103;28;20033;-76
2023/08/16 13:45:10;;;;;;;7.65;5.47;;;;;;;;;;5055210;28;20431;-75
2023/08/16 13:47:35;;;;;;;7.30;5.85;;;;;;;;;;5057000;28;20028;-76
2023/08/16 13:50:01;;;;;;;9.57;5.82;;;;;;;;;;5049005;28;20450;-74
2023/08/16 13:52:28;;;;;;;7.70;5.43;;;;;;;;;;5051269;28;20045;-74
2023/08/16 13:54:53;;;;;;;8.30;5.07;;;;;;;;;;5043166;28;20422;-77
2023/08/16 13:57:18;;;;;;;9.48;5.63;;;;;;;;;;5045434;28;20029;-75
2023/08/16 13:59:44;;;;;;;10.98;5.93;;;;;;;;;;5040562;28;20033;-76
2023/08/16 14:02:09;;;;;;;6.88;5.93;;;;;;;;;;5036706;28;20029;-74
2023/08/16 14:04:34;;;;;;;6.25;5.07;;;;;;;;;;5049371;28;20750;-73
2023/08/16 14:07:00;;;;;;;5.63;5.05;;;;;;;;;;5047146;28;20032;-73
2023/08/16 14:09:25;;;;;;;7.70;5.38;;;;;;;;;;5052464;28;20103;-74
2023/08/16 14:11:50;;;;;;;6.22;5.40;;;;;;;;;;5044734;28;20043;-75
2023/08/16 14:14:16;;;;;;;9.00;5.47;;;;;;;;;;5052731;28;20126;-74
2023/08/16 14:16:43;;;;;;;6.90;5.55;;;;;;;;;;5050638;28;20466;-76
2023/08/16 14:19:08;;;;;;;10.13;5.22;;;;;;;;;;5053203;28;20025;-74